Menu       Home   X °F

Select another period ( hide this area )

Units Period Custom range Directly to
Metric English Both
Daily Weekly Monthly Yearly
use both date-selectors for a custom range
previous Day
With this date
Daily Summary for Sunday 25 February 2024
Time Temp. ( °F ) Dew pt. ( °F ) Wind ( mph ) From Gust ( mph ) Pressure ( in ) Humid.( % ) Rainrate ( in )
High47.7 45.1 1.9 WNW ( 576/576 ) 4.3 29.37 99 2.40
Average36.7 35.2 1.9 WNW #192/192 4.3 29.33 95 4.73
Low28.9 28.4 1.9   4.3 29.24 86 -
Daily Tabular details for Sunday 25 February 2024
Time Temp. ( °F ) Dew pt. ( °F ) Wind ( mph ) From Gust ( mph ) Pressure ( in ) Humid.( % ) Rainrate ( in )
00:04 31.6 30.9 1.9 WNW 4.3 29.37 97 -
00:09 32.2 31.5 1.9 WNW 4.3 29.37 97 -
00:14 32.0 31.3 1.9 WNW 4.3 29.37 97 -
00:19 32.2 31.5 1.9 WNW 4.3 29.37 97 -
00:24 32.5 32.0 1.9 WNW 4.3 29.37 98 -
00:29 32.5 32.0 1.9 WNW 4.3 29.36 98 -
00:34 32.0 31.3 1.9 WNW 4.3 29.37 97 -
00:39 32.2 31.5 1.9 WNW 4.3 29.37 97 -
00:44 32.5 32.0 1.9 WNW 4.3 29.36 98 -
00:49 32.4 31.6 1.9 WNW 4.3 29.37 97 -
00:54 32.2 31.5 1.9 WNW 4.3 29.37 97 -
00:59 31.8 31.1 1.9 WNW 4.3 29.36 97 -
01:04 31.5 30.7 1.9 WNW 4.3 29.37 97 -
01:09 31.5 30.7 1.9 WNW 4.3 29.37 97 -
01:14 31.5 30.7 1.9 WNW 4.3 29.37 97 -
01:19 31.8 31.3 1.9 WNW 4.3 29.37 98 -
01:24 31.8 31.3 1.9 WNW 4.3 29.36 98 -
01:29 31.6 30.9 1.9 WNW 4.3 29.37 97 -
01:34 31.6 31.1 1.9 WNW 4.3 29.37 98 -
01:39 31.8 31.3 1.9 WNW 4.3 29.37 98 -
01:44 31.6 31.1 1.9 WNW 4.3 29.37 98 -
01:49 31.5 30.7 1.9 WNW 4.3 29.37 97 -
01:54 31.5 30.7 1.9 WNW 4.3 29.37 97 -
01:59 31.3 30.6 1.9 WNW 4.3 29.36 97 -
02:04 31.3 30.7 1.9 WNW 4.3 29.36 98 -
02:09 31.5 30.9 1.9 WNW 4.3 29.36 98 -
02:14 31.5 30.9 1.9 WNW 4.3 29.36 98 -
02:19 31.1 30.6 1.9 WNW 4.3 29.37 98 -
02:24 30.9 30.4 1.9 WNW 4.3 29.36 98 -
02:29 30.9 30.4 1.9 WNW 4.3 29.37 98 -
02:34 30.9 30.4 1.9 WNW 4.3 29.37 98 -
02:39 30.9 30.4 1.9 WNW 4.3 29.36 98 -
02:44 31.1 30.6 1.9 WNW 4.3 29.36 98 -
02:49 31.1 30.6 1.9 WNW 4.3 29.36 98 -
02:54 31.1 30.6 1.9 WNW 4.3 29.36 98 -
02:59 30.9 30.4 1.9 WNW 4.3 29.36 98 -
03:04 30.7 30.2 1.9 WNW 4.3 29.35 98 -
03:09 30.6 30.0 1.9 WNW 4.3 29.35 98 -
03:14 30.4 29.8 1.9 WNW 4.3 29.35 98 -
03:19 30.4 29.8 1.9 WNW 4.3 29.36 98 -
03:24 30.6 30.0 1.9 WNW 4.3 29.35 98 -
03:29 30.4 29.8 1.9 WNW 4.3 29.35 98 -
03:34 30.2 29.7 1.9 WNW 4.3 29.35 98 -
03:39 30.2 29.7 1.9 WNW 4.3 29.35 98 -
03:44 30.4 29.8 1.9 WNW 4.3 29.35 98 -
03:49 30.7 30.2 1.9 WNW 4.3 29.35 98 -
03:54 30.7 30.2 1.9 WNW 4.3 29.35 98 -
03:59 30.7 30.2 1.9 WNW 4.3 29.35 98 -
04:04 30.6 30.0 1.9 WNW 4.3 29.35 98 -
04:09 30.4 29.8 1.9 WNW 4.3 29.36 98 -
04:14 30.4 29.8 1.9 WNW 4.3 29.35 98 -
04:19 30.2 29.7 1.9 WNW 4.3 29.36 98 -
04:24 30.2 29.7 1.9 WNW 4.3 29.36 98 -
04:29 30.0 29.5 1.9 WNW 4.3 29.36 98 -
04:34 30.0 29.5 1.9 WNW 4.3 29.36 98 -
04:39 29.8 29.3 1.9 WNW 4.3 29.36 98 -
04:44 29.8 29.3 1.9 WNW 4.3 29.36 98 -
04:49 30.0 29.5 1.9 WNW 4.3 29.36 98 -
04:54 29.8 29.3 1.9 WNW 4.3 29.36 98 -
04:59 29.8 29.3 1.9 WNW 4.3 29.35 98 -
05:04 30.0 29.5 1.9 WNW 4.3 29.35 98 -
05:09 30.2 29.7 1.9 WNW 4.3 29.35 98 -
05:14 30.2 29.7 1.9 WNW 4.3 29.35 98 -
05:19 30.2 29.7 1.9 WNW 4.3 29.36 98 -
05:24 30.2 29.7 1.9 WNW 4.3 29.36 98 -
05:29 30.0 29.5 1.9 WNW 4.3 29.36 98 -
05:34 29.8 29.3 1.9 WNW 4.3 29.36 98 -
05:39 29.8 29.3 1.9 WNW 4.3 29.36 98 -
05:44 29.8 29.3 1.9 WNW 4.3 29.36 98 -
05:49 29.8 29.3 1.9 WNW 4.3 29.36 98 -
05:54 30.0 29.5 1.9 WNW 4.3 29.35 98 -
05:59 29.8 29.3 1.9 WNW 4.3 29.35 98 -
06:04 29.7 29.1 1.9 WNW 4.3 29.36 98 -
06:09 29.5 28.9 1.9 WNW 4.3 29.35 98 -
06:14 29.5 28.9 1.9 WNW 4.3 29.35 98 -
06:19 29.5 28.9 1.9 WNW 4.3 29.35 98 -
06:24 29.7 29.1 1.9 WNW 4.3 29.35 98 -
06:29 29.7 29.1 1.9 WNW 4.3 29.35 98 -
06:34 29.8 29.3 1.9 WNW 4.3 29.36 98 -
06:39 30.0 29.5 1.9 WNW 4.3 29.36 98 -
06:44 30.0 29.5 1.9 WNW 4.3 29.36 98 -
06:49 29.8 29.3 1.9 WNW 4.3 29.35 98 -
06:54 29.7 29.1 1.9 WNW 4.3 29.35 98 -
06:59 29.3 28.8 1.9 WNW 4.3 29.35 98 -
07:04 29.1 28.6 1.9 WNW 4.3 29.35 98 -
07:09 28.9 28.4 1.9 WNW 4.3 29.35 98 -
07:14 28.9 28.4 1.9 WNW 4.3 29.35 98 -
07:19 28.9 28.4 1.9 WNW 4.3 29.35 98 -
07:24 29.3 28.8 1.9 WNW 4.3 29.35 98 -
07:29 29.3 28.8 1.9 WNW 4.3 29.35 98 -
07:34 29.3 28.8 1.9 WNW 4.3 29.35 98 -
07:39 29.3 28.8 1.9 WNW 4.3 29.34 98 -
07:44 29.5 28.9 1.9 WNW 4.3 29.35 98 -
07:49 29.5 28.9 1.9 WNW 4.3 29.34 98 -
07:54 29.7 29.1 1.9 WNW 4.3 29.35 98 -
07:59 29.8 29.3 1.9 WNW 4.3 29.35 98 -
08:04 29.8 29.3 1.9 WNW 4.3 29.35 98 -
08:09 30.0 29.5 1.9 WNW 4.3 29.35 98 -
08:14 30.2 29.7 1.9 WNW 4.3 29.34 98 -
08:19 30.6 30.0 1.9 WNW 4.3 29.35 98 -
08:24 31.3 30.7 1.9 WNW 4.3 29.34 98 -
08:29 31.5 30.9 1.9 WNW 4.3 29.34 98 -
08:34 31.6 31.1 1.9 WNW 4.3 29.34 98 -
08:39 31.8 31.3 1.9 WNW 4.3 29.34 98 -
08:44 32.2 31.6 1.9 WNW 4.3 29.34 98 -
08:49 32.7 32.2 1.9 WNW 4.3 29.34 98 -
08:54 34.5 34.3 1.9 WNW 4.3 29.34 99 -
08:59 35.4 35.2 1.9 WNW 4.3 29.34 99 -
09:04 36.9 36.7 1.9 WNW 4.3 29.34 99 -
09:09 37.8 37.6 1.9 WNW 4.3 29.34 99 -
09:14 38.7 38.5 1.9 WNW 4.3 29.34 99 -
09:19 39.7 39.6 1.9 WNW 4.3 29.34 99 -
09:24 40.5 40.3 1.9 WNW 4.3 29.34 99 -
09:29 41.7 41.5 1.9 WNW 4.3 29.34 99 2.40
09:34 42.4 42.3 1.9 WNW 4.3 29.33 99 2.40
09:39 42.1 41.9 1.9 WNW 4.3 29.33 99 2.40
09:44 41.7 41.5 1.9 WNW 4.3 29.33 99 2.40
09:49 41.2 41.0 1.9 WNW 4.3 29.33 99 2.40
09:54 42.4 42.3 1.9 WNW 4.3 29.33 99 -
09:59 43.0 42.8 1.9 WNW 4.3 29.34 99 -
10:04 43.7 43.5 1.9 WNW 4.3 29.34 99 -
10:09 43.7 43.2 1.9 WNW 4.3 29.34 98 -
10:14 43.7 43.2 1.9 WNW 4.3 29.34 98 -
10:19 44.2 43.7 1.9 WNW 4.3 29.34 98 -
10:24 44.4 43.9 1.9 WNW 4.3 29.33 98 -
10:29 44.8 44.2 1.9 WNW 4.3 29.33 98 -
10:34 45.1 44.4 1.9 WNW 4.3 29.33 97 -
10:39 46.0 45.0 1.9 WNW 4.3 29.33 96 -
10:44 46.8 45.1 1.9 WNW 4.3 29.33 95 -
10:49 47.1 45.0 1.9 WNW 4.3 29.33 93 -
10:54 47.7 45.0 1.9 WNW 4.3 29.33 91 -
10:59 47.5 44.4 1.9 WNW 4.3 29.33 89 -
11:04 47.3 43.9 1.9 WNW 4.3 29.32 88 -
11:09 46.9 43.5 1.9 WNW 4.3 29.32 88 -
11:14 46.6 43.2 1.9 WNW 4.3 29.32 88 -
11:19 46.2 42.8 1.9 WNW 4.3 29.32 88 -
11:24 45.9 42.4 1.9 WNW 4.3 29.32 88 -
11:29 45.7 42.3 1.9 WNW 4.3 29.32 88 -
11:34 45.9 42.4 1.9 WNW 4.3 29.33 88 -
11:39 45.5 42.3 1.9 WNW 4.3 29.32 88 -
11:44 45.7 42.3 1.9 WNW 4.3 29.32 88 -
11:49 45.7 42.3 1.9 WNW 4.3 29.32 88 -
11:54 45.3 42.1 1.9 WNW 4.3 29.32 89 -
11:59 45.0 41.9 1.9 WNW 4.3 29.31 89 -
12:04 44.6 41.9 1.9 WNW 4.3 29.31 90 -
12:09 44.6 41.9 1.9 WNW 4.3 29.31 90 -
12:14 44.8 42.1 1.9 WNW 4.3 29.31 90 -
12:19 44.8 42.1 1.9 WNW 4.3 29.31 90 -
12:24 44.6 41.9 1.9 WNW 4.3 29.30 90 -
12:29 44.6 41.9 1.9 WNW 4.3 29.29 90 -
12:34 44.4 41.4 1.9 WNW 4.3 29.30 89 -
12:39 44.6 41.5 1.9 WNW 4.3 29.30 89 -
12:44 44.8 41.7 1.9 WNW 4.3 29.29 89 -
12:49 44.8 41.7 1.9 WNW 4.3 29.29 89 -
12:54 44.8 41.7 1.9 WNW 4.3 29.29 89 -
12:59 44.8 41.7 1.9 WNW 4.3 29.29 89 -
13:04 44.6 41.5 1.9 WNW 4.3 29.28 89 -
13:09 44.6 41.5 1.9 WNW 4.3 29.29 89 -
13:14 44.6 41.5 1.9 WNW 4.3 29.28 89 -
13:19 44.4 41.4 1.9 WNW 4.3 29.28 89 -
13:24 44.4 41.4 1.9 WNW 4.3 29.28 89 -
13:29 44.2 41.2 1.9 WNW 4.3 29.28 89 -
13:34 44.2 41.2 1.9 WNW 4.3 29.28 89 -
13:39 44.2 41.2 1.9 WNW 4.3 29.28 89 -
13:44 44.2 41.2 1.9 WNW 4.3 29.27 89 -
13:49 44.1 41.0 1.9 WNW 4.3 29.27 89 -
13:54 44.2 41.2 1.9 WNW 4.3 29.27 89 -
13:59 44.2 41.2 1.9 WNW 4.3 29.27 89 -
14:04 44.2 41.2 1.9 WNW 4.3 29.26 89 -
14:09 44.2 41.2 1.9 WNW 4.3 29.27 89 -
14:14 44.4 41.2 1.9 WNW 4.3 29.26 88 -
14:19 44.6 41.4 1.9 WNW 4.3 29.26 88 -
14:24 44.6 41.4 1.9 WNW 4.3 29.26 88 -
14:29 44.6 41.4 1.9 WNW 4.3 29.26 88 -
14:34 44.6 41.4 1.9 WNW 4.3 29.26 88 -
14:39 44.6 41.2 1.9 WNW 4.3 29.26 88 -
14:44 44.6 41.0 1.9 WNW 4.3 29.26 87 -
14:49 44.6 41.0 1.9 WNW 4.3 29.25 87 -
14:54 44.6 41.0 1.9 WNW 4.3 29.26 87 -
14:59 44.8 41.2 1.9 WNW 4.3 29.26 87 -
15:04 44.8 41.2 1.9 WNW 4.3 29.26 87 -
15:09 44.8 41.2 1.9 WNW 4.3 29.25 87 -
15:14 44.8 40.8 1.9 WNW 4.3 29.25 86 -
15:19 44.8 40.8 1.9 WNW 4.3 29.25 86 -
15:24 44.8 40.8 1.9 WNW 4.3 29.25 86 -
15:29 44.8 40.8 1.9 WNW 4.3 29.25 86 -
15:34 44.6 41.0 1.9 WNW 4.3 29.25 87 -
15:39 44.6 41.0 1.9 WNW 4.3 29.24 87 -
15:44 44.6 41.0 1.9 WNW 4.3 29.25 87 -
15:49 44.6 41.0 1.9 WNW 4.3 29.24 87 -
15:54 44.6 41.0 1.9 WNW 4.3 29.24 87 -
15:59 44.6 41.4 1.9 WNW 4.3 29.24 88 -

Download your copy of this data-set  from WeatherUnderground

Our weather-data as stored at Weather Underground

Web Analytics Made Easy -
StatCounter